Time;durP1;ratioP1;P1;durP2;ratioP2;P2;SDS_P1;SDS_P2;PMS_P1;PMS_P2;Temp;Humidity;BMP_temperature;BMP_pressure;BME280_temperature;BME280_humidity;BME280_pressure;Samples;Min_cycle;Max_cycle;Signal;HPM_P1;HPM_P2
2022/09/07 00:01:33;;;;;;;6.03;1.90;;;;;;;;;;6270732;28;20090;-84
2022/09/07 00:04:33;;;;;;;3.30;1.70;;;;;;;;;;6252732;28;20024;-84
2022/09/07 00:07:33;;;;;;;3.10;1.80;;;;;;;;;;6270064;28;20070;-84
2022/09/07 00:10:33;;;;;;;5.63;2.20;;;;;;;;;;6261792;28;20048;-84
2022/09/07 00:13:35;;;;;;;5.07;1.67;;;;;;;;;;6266890;28;20016;-83
2022/09/07 00:16:35;;;;;;;3.88;2.13;;;;;;;;;;6249877;28;20013;-83
2022/09/07 00:19:35;;;;;;;3.93;1.60;;;;;;;;;;6271128;28;20372;-83
2022/09/07 00:22:35;;;;;;;4.10;2.00;;;;;;;;;;6252942;28;20376;-83
2022/09/07 00:25:39;;;;;;;7.17;2.53;;;;;;;;;;6254250;28;20099;-84
2022/09/07 00:28:40;;;;;;;7.07;2.20;;;;;;;;;;6271031;28;20427;-84
2022/09/07 00:31:40;;;;;;;3.95;2.05;;;;;;;;;;6270527;28;20021;-84
2022/09/07 00:34:41;;;;;;;6.97;2.67;;;;;;;;;;6264405;28;20028;-83
2022/09/07 00:37:41;;;;;;;5.17;2.30;;;;;;;;;;6268979;28;20147;-84
2022/09/07 00:40:41;;;;;;;5.27;2.07;;;;;;;;;;6271105;28;20066;-84
2022/09/07 00:44:08;;;;;;;6.35;2.20;;;;;;;;;;6252237;28;20017;-84
2022/09/07 00:47:28;;;;;;;7.47;2.60;;;;;;;;;;6244248;28;20438;-84
2022/09/07 00:50:31;;;;;;;8.95;2.95;;;;;;;;;;6266192;28;20033;-84
2022/09/07 00:53:53;;;;;;;7.13;3.03;;;;;;;;;;6252284;28;20029;-84
2022/09/07 00:56:53;;;;;;;4.57;1.83;;;;;;;;;;6251708;28;20022;-84
2022/09/07 00:59:55;;;;;;;4.93;2.20;;;;;;;;;;6246608;28;20030;-84
2022/09/07 01:02:57;;;;;;;5.65;2.45;;;;;;;;;;6252347;28;20120;-84
2022/09/07 01:05:57;;;;;;;;;;;;;;;;;;6270769;28;20686;-84
2022/09/07 01:09:01;;;;;;;5.15;2.17;;;;;;;;;;6269435;28;20612;-83
2022/09/07 01:12:03;;;;;;;9.45;3.00;;;;;;;;;;6268828;28;20385;-83
2022/09/07 01:15:04;;;;;;;4.13;2.15;;;;;;;;;;6251932;28;20028;-83
2022/09/07 01:18:24;;;;;;;10.23;2.27;;;;;;;;;;6243038;28;20017;-83
2022/09/07 01:21:26;;;;;;;4.07;2.35;;;;;;;;;;6243997;28;20029;-83
2022/09/07 01:24:44;;;;;;;4.72;2.70;;;;;;;;;;6270339;28;20095;-83
2022/09/07 01:27:57;;;;;;;5.20;2.35;;;;;;;;;;6256625;28;20021;-83
2022/09/07 01:31:00;;;;;;;5.80;2.42;;;;;;;;;;6264558;28;20021;-83
2022/09/07 01:34:20;;;;;;;9.02;2.80;;;;;;;;;;6271848;28;20388;-84
2022/09/07 01:37:50;;;;;;;8.25;2.47;;;;;;;;;;6273784;28;20028;-84
2022/09/07 01:40:56;;;;;;;6.00;2.30;;;;;;;;;;6248293;28;20056;-83
2022/09/07 01:44:02;;;;;;;5.75;3.10;;;;;;;;;;6275183;28;20027;-83
2022/09/07 01:47:12;;;;;;;4.82;2.13;;;;;;;;;;6274388;28;20032;-83
2022/09/07 01:50:16;;;;;;;6.78;2.70;;;;;;;;;;6251748;28;20060;-83
2022/09/07 01:53:18;;;;;;;5.07;2.83;;;;;;;;;;6252107;28;20036;-84
2022/09/07 01:56:22;;;;;;;6.32;3.03;;;;;;;;;;6268329;28;20013;-84
2022/09/07 01:59:27;;;;;;;6.03;2.25;;;;;;;;;;6268954;28;20010;-84
2022/09/07 02:02:28;;;;;;;6.25;2.75;;;;;;;;;;6254969;28;20021;-83
2022/09/07 02:05:32;;;;;;;6.03;2.90;;;;;;;;;;6267430;28;20036;-83
2022/09/07 02:08:35;;;;;;;7.43;2.92;;;;;;;;;;6254621;28;20479;-84
2022/09/07 02:11:41;;;;;;;6.07;2.88;;;;;;;;;;6271726;28;20569;-84
2022/09/07 02:14:43;;;;;;;7.10;3.30;;;;;;;;;;6298356;28;20476;-84
2022/09/07 02:17:55;;;;;;;7.97;3.33;;;;;;;;;;6296811;28;20546;-84
2022/09/07 02:20:56;;;;;;;7.55;2.65;;;;;;;;;;6296189;28;20031;-84
2022/09/07 02:24:00;;;;;;;5.75;2.58;;;;;;;;;;6299152;28;20020;-84
2022/09/07 02:27:05;;;;;;;11.07;2.70;;;;;;;;;;6297835;28;20055;-83
2022/09/07 02:30:05;;;;;;;4.05;2.92;;;;;;;;;;6297540;28;20044;-84
2022/09/07 02:33:05;;;;;;;5.50;3.00;;;;;;;;;;6295958;28;20027;-84
2022/09/07 02:36:06;;;;;;;8.70;2.90;;;;;;;;;;6296782;28;20482;-84
2022/09/07 02:39:07;;;;;;;6.47;3.17;;;;;;;;;;6296044;28;20011;-84
2022/09/07 02:42:07;;;;;;;7.73;2.60;;;;;;;;;;6296800;28;20012;-84
2022/09/07 02:45:09;;;;;;;7.30;3.53;;;;;;;;;;6293125;28;20282;-84
2022/09/07 02:48:12;;;;;;;8.07;3.50;;;;;;;;;;6291522;28;20016;-84
2022/09/07 02:51:25;;;;;;;9.38;2.92;;;;;;;;;;6293610;28;20044;-84
2022/09/07 02:54:26;;;;;;;4.57;2.42;;;;;;;;;;6296157;28;20170;-84
2022/09/07 02:57:45;;;;;;;7.03;2.97;;;;;;;;;;6295390;28;20017;-84
2022/09/07 03:01:00;;;;;;;7.40;2.80;;;;;;;;;;6297163;28;20471;-84
2022/09/07 03:04:00;;;;;;;5.47;2.58;;;;;;;;;;6292240;28;20458;-84
2022/09/07 03:07:12;;;;;;;6.77;2.83;;;;;;;;;;6292944;28;20033;-84
2022/09/07 03:10:14;;;;;;;6.13;3.20;;;;;;;;;;6293766;28;20103;-84
2022/09/07 03:13:22;;;;;;;8.13;4.38;;;;;;;;;;6245469;28;20040;-84
2022/09/07 03:16:22;;;;;;;6.45;3.00;;;;;;;;;;6250372;28;20031;-84
2022/09/07 03:19:22;;;;;;;7.10;3.20;;;;;;;;;;6252755;28;20010;-84
2022/09/07 03:22:22;;;;;;;8.27;2.80;;;;;;;;;;6271242;28;20024;-84
2022/09/07 03:25:22;;;;;;;6.53;3.42;;;;;;;;;;6253122;28;20431;-84
2022/09/07 03:28:23;;;;;;;10.00;3.65;;;;;;;;;;6270870;28;20021;-83
2022/09/07 03:31:23;;;;;;;8.32;3.83;;;;;;;;;;6265693;28;20021;-83
2022/09/07 03:34:23;;;;;;;5.83;3.07;;;;;;;;;;6247716;28;20376;-84
2022/09/07 03:37:24;;;;;;;7.47;3.88;;;;;;;;;;6253413;28;20112;-84
2022/09/07 03:40:24;;;;;;;12.23;3.65;;;;;;;;;;6248105;28;20024;-83
2022/09/07 03:43:24;;;;;;;9.88;4.70;;;;;;;;;;6269031;28;20028;-84
2022/09/07 03:46:24;;;;;;;6.63;3.08;;;;;;;;;;6269327;28;20106;-84
2022/09/07 03:49:24;;;;;;;6.65;3.92;;;;;;;;;;6264982;28;20082;-84
2022/09/07 03:52:25;;;;;;;12.90;3.15;;;;;;;;;;6271105;28;20461;-84
2022/09/07 03:55:25;;;;;;;10.07;3.90;;;;;;;;;;6252821;28;20035;-84
2022/09/07 03:58:27;;;;;;;6.88;3.75;;;;;;;;;;6270170;28;20024;-83
2022/09/07 04:01:28;;;;;;;8.93;3.47;;;;;;;;;;6251535;28;20059;-83
2022/09/07 04:04:28;;;;;;;9.33;4.13;;;;;;;;;;6249296;28;20753;-83
2022/09/07 04:07:28;;;;;;;6.40;3.97;;;;;;;;;;6268238;28;20753;-83
2022/09/07 04:10:28;;;;;;;8.50;3.60;;;;;;;;;;6268307;28;20041;-84
2022/09/07 04:13:29;;;;;;;5.65;3.30;;;;;;;;;;6265350;28;20365;-84
2022/09/07 04:16:30;;;;;;;;;;;;;;;;;;6252394;28;20485;-83
2022/09/07 04:19:31;;;;;;;10.90;3.30;;;;;;;;;;6268335;28;20597;-84
2022/09/07 04:22:31;;;;;;;13.53;3.20;;;;;;;;;;6250630;28;20022;-84
2022/09/07 04:25:31;;;;;;;7.82;4.32;;;;;;;;;;6270246;28;20025;-84
2022/09/07 04:28:32;;;;;;;8.55;3.47;;;;;;;;;;6269172;28;20028;-83
2022/09/07 04:31:32;;;;;;;11.85;3.83;;;;;;;;;;6238960;28;20013;-83
2022/09/07 04:34:32;;;;;;;10.25;5.45;;;;;;;;;;6251858;28;20029;-83
2022/09/07 04:37:32;;;;;;;5.03;3.43;;;;;;;;;;6269896;28;20028;-83
2022/09/07 04:40:33;;;;;;;9.38;4.45;;;;;;;;;;6267034;28;20251;-83
2022/09/07 04:43:33;;;;;;;5.90;3.28;;;;;;;;;;6266855;28;20025;-83
2022/09/07 04:46:35;;;;;;;7.95;3.35;;;;;;;;;;6249992;28;20052;-83
2022/09/07 04:49:35;;;;;;;10.73;3.85;;;;;;;;;;6252650;28;20025;-83
2022/09/07 04:52:35;;;;;;;11.77;4.72;;;;;;;;;;6254796;28;20476;-83
2022/09/07 04:55:35;;;;;;;8.95;3.33;;;;;;;;;;6258825;28;20620;-84
2022/09/07 04:58:36;;;;;;;8.20;3.75;;;;;;;;;;6251244;28;20025;-84
2022/09/07 05:01:36;;;;;;;9.03;4.57;;;;;;;;;;6252547;28;20021;-84
2022/09/07 05:04:36;;;;;;;10.93;4.27;;;;;;;;;;6251170;28;20021;-84
2022/09/07 05:07:36;;;;;;;11.07;3.88;;;;;;;;;;6253294;28;20108;-84
2022/09/07 05:10:36;;;;;;;6.00;3.23;;;;;;;;;;6269288;28;20049;-84
2022/09/07 05:13:37;;;;;;;8.87;4.10;;;;;;;;;;6254541;28;20116;-85
2022/09/07 05:16:37;;;;;;;7.13;3.53;;;;;;;;;;6267469;28;20400;-84
2022/09/07 05:19:37;;;;;;;8.18;3.92;;;;;;;;;;6274098;28;20035;-84
2022/09/07 05:22:39;;;;;;;6.47;3.45;;;;;;;;;;6272546;28;20067;-84
2022/09/07 05:25:43;;;;;;;9.38;3.88;;;;;;;;;;6271823;28;20025;-84
2022/09/07 05:28:44;;;;;;;8.55;3.70;;;;;;;;;;6257860;28;20013;-85
2022/09/07 05:31:44;;;;;;;7.23;3.50;;;;;;;;;;6267950;28;20104;-85
2022/09/07 05:34:44;;;;;;;10.23;4.40;;;;;;;;;;6249597;28;20021;-85
2022/09/07 05:37:48;;;;;;;12.50;4.77;;;;;;;;;;6266575;28;20021;-84
2022/09/07 05:40:49;;;;;;;8.93;5.00;;;;;;;;;;6251061;28;20549;-85
2022/09/07 05:43:49;;;;;;;14.70;5.55;;;;;;;;;;6266539;28;20555;-85
2022/09/07 05:46:50;;;;;;;11.07;3.97;;;;;;;;;;6254861;28;20032;-85
2022/09/07 05:49:50;;;;;;;8.83;4.10;;;;;;;;;;6266672;28;20083;-85
2022/09/07 05:52:50;;;;;;;14.00;3.93;;;;;;;;;;6255101;28;20116;-85
2022/09/07 05:55:50;;;;;;;10.23;3.70;;;;;;;;;;6246058;28;20118;-85
2022/09/07 05:58:51;;;;;;;9.80;4.05;;;;;;;;;;6247187;28;20033;-85
2022/09/07 06:01:51;;;;;;;8.77;5.18;;;;;;;;;;6247346;28;20044;-85
2022/09/07 06:04:51;;;;;;;8.20;3.92;;;;;;;;;;6268003;28;20519;-85
2022/09/07 06:07:51;;;;;;;11.55;4.57;;;;;;;;;;6268972;28;20107;-85
2022/09/07 06:10:52;;;;;;;11.47;4.77;;;;;;;;;;6273740;28;20451;-85
2022/09/07 06:13:52;;;;;;;8.70;4.03;;;;;;;;;;6265763;28;20025;-85
2022/09/07 06:16:52;;;;;;;9.33;4.67;;;;;;;;;;6269052;28;20497;-85
2022/09/07 06:19:53;;;;;;;12.73;4.57;;;;;;;;;;6268155;28;20048;-85
2022/09/07 06:27:48;;;;;;;9.77;4.22;;;;;;;;;;6267933;27;20444;-78
2022/09/07 06:30:48;;;;;;;7.22;3.95;;;;;;;;;;6255893;28;20441;-78
2022/09/07 06:33:48;;;;;;;8.30;4.25;;;;;;;;;;6275817;28;20025;-78
2022/09/07 06:36:48;;;;;;;14.27;5.93;;;;;;;;;;6266472;28;20009;-78
2022/09/07 06:39:49;;;;;;;10.32;4.97;;;;;;;;;;6281796;28;20021;-79
2022/09/07 06:42:49;;;;;;;12.87;5.17;;;;;;;;;;6265139;28;20013;-79
2022/09/07 06:45:53;;;;;;;11.07;4.77;;;;;;;;;;6263332;28;20108;-79
2022/09/07 06:48:53;;;;;;;11.35;4.95;;;;;;;;;;6253823;28;20133;-79
2022/09/07 06:51:53;;;;;;;15.20;4.80;;;;;;;;;;6263322;28;20079;-79
2022/09/07 06:54:54;;;;;;;12.33;4.67;;;;;;;;;;6260400;28;20028;-79
2022/09/07 06:57:54;;;;;;;14.85;5.18;;;;;;;;;;6270291;28;20415;-79
2022/09/07 07:00:55;;;;;;;13.60;4.53;;;;;;;;;;6255998;28;20442;-79
2022/09/07 07:03:55;;;;;;;10.27;5.25;;;;;;;;;;6280796;28;20017;-78
2022/09/07 07:06:55;;;;;;;15.00;5.20;;;;;;;;;;6270224;28;20037;-79
2022/09/07 07:09:55;;;;;;;16.08;5.95;;;;;;;;;;6260398;28;20414;-79
2022/09/07 07:12:56;;;;;;;14.33;4.90;;;;;;;;;;6256122;28;20074;-79
2022/09/07 07:16:02;;;;;;;12.40;6.27;;;;;;;;;;6263897;28;20009;-80
2022/09/07 07:19:03;;;;;;;15.65;5.15;;;;;;;;;;6278703;28;20503;-79
2022/09/07 07:22:03;;;;;;;11.67;5.60;;;;;;;;;;6264444;28;20096;-79
2022/09/07 07:25:03;;;;;;;8.90;4.10;;;;;;;;;;6262460;28;20504;-79
2022/09/07 07:28:04;;;;;;;9.80;4.63;;;;;;;;;;6261771;28;20385;-79
2022/09/07 07:31:04;;;;;;;11.57;4.57;;;;;;;;;;6263698;28;20290;-79
2022/09/07 07:34:05;;;;;;;;;;;;;;;;;;6262999;28;20071;-79
2022/09/07 07:37:05;;;;;;;10.23;5.20;;;;;;;;;;6277347;28;19909;-79
2022/09/07 07:40:07;;;;;;;14.07;4.63;;;;;;;;;;6249020;28;20049;-79
2022/09/07 07:43:08;;;;;;;9.13;4.65;;;;;;;;;;6248004;28;20048;-79
2022/09/07 07:46:11;;;;;;;9.23;4.50;;;;;;;;;;6249490;28;20025;-80
2022/09/07 07:49:11;;;;;;;10.80;4.30;;;;;;;;;;6234623;28;20540;-79
2022/09/07 07:52:11;;;;;;;;;;;;;;;;;;6244316;28;20041;-79
2022/09/07 07:55:11;;;;;;;17.17;5.60;;;;;;;;;;6247255;28;19909;-80
2022/09/07 07:58:11;;;;;;;12.37;5.77;;;;;;;;;;6248058;28;20232;-80
2022/09/07 08:01:11;;;;;;;;;;;;;;;;;;6262795;28;20245;-79
2022/09/07 08:04:12;;;;;;;8.77;4.65;;;;;;;;;;6246902;28;19932;-79
2022/09/07 08:07:12;;;;;;;;;;;;;;;;;;6246546;28;20026;-79
2022/09/07 08:10:12;;;;;;;13.02;4.90;;;;;;;;;;6247000;28;19919;-79
2022/09/07 08:13:13;;;;;;;;;;;;;;;;;;6246272;28;20484;-79
2022/09/07 08:16:13;;;;;;;9.37;4.83;;;;;;;;;;6247685;28;19913;-80
2022/09/07 08:19:14;;;;;;;;;;;;;;;;;;6260210;28;20116;-79
2022/09/07 08:22:14;;;;;;;8.60;4.20;;;;;;;;;;6248701;28;19905;-79
2022/09/07 08:25:14;;;;;;;;;;;;;;;;;;6249355;28;20551;-77
2022/09/07 08:28:14;;;;;;;11.45;4.65;;;;;;;;;;6245878;28;20400;-77
2022/09/07 08:31:14;;;;;;;;;;;;;;;;;;6239457;28;20025;-78
2022/09/07 08:34:15;;;;;;;8.40;3.80;;;;;;;;;;6259283;28;19991;-78
2022/09/07 08:37:15;;;;;;;;;;;;;;;;;;6244991;28;20036;-78
2022/09/07 08:40:16;;;;;;;8.38;3.63;;;;;;;;;;6237515;28;20301;-78
2022/09/07 08:43:25;;;;;;;10.05;3.63;;;;;;;;;;6238057;28;20059;-78
2022/09/07 08:46:31;;;;;;;5.68;3.40;;;;;;;;;;6246912;28;20112;-78
2022/09/07 08:49:35;;;;;;;7.18;3.97;;;;;;;;;;6246442;28;20480;-78
2022/09/07 08:52:46;;;;;;;8.95;3.42;;;;;;;;;;6244644;28;20080;-78
2022/09/07 08:55:49;;;;;;;7.20;3.58;;;;;;;;;;6246489;28;20104;-77
2022/09/07 08:58:52;;;;;;;4.93;3.35;;;;;;;;;;6241549;28;20598;-78
2022/09/07 09:01:52;;;;;;;5.47;3.35;;;;;;;;;;6244483;28;20397;-78
2022/09/07 09:04:52;;;;;;;;;;;;;;;;;;6246703;28;20037;-78
2022/09/07 09:08:12;;;;;;;8.00;3.22;;;;;;;;;;6240755;28;20428;-78
2022/09/07 09:11:22;;;;;;;6.90;2.87;;;;;;;;;;6245948;28;20049;-78
2022/09/07 09:14:22;;;;;;;6.15;2.95;;;;;;;;;;6242683;28;20280;-78
2022/09/07 09:17:22;;;;;;;;;;;;;;;;;;6254285;28;20064;-78
2022/09/07 09:20:30;;;;;;;7.38;3.08;;;;;;;;;;6245997;28;21433;-78
2022/09/07 09:23:35;;;;;;;5.57;2.88;;;;;;;;;;6230362;28;20076;-78
2022/09/07 09:26:36;;;;;;;7.90;3.25;;;;;;;;;;6254574;28;20041;-78
2022/09/07 09:29:36;;;;;;;7.43;3.00;;;;;;;;;;6233786;28;20036;-78
2022/09/07 09:32:41;;;;;;;5.50;3.80;;;;;;;;;;6232867;28;20417;-78
2022/09/07 09:35:42;;;;;;;9.55;3.00;;;;;;;;;;6243317;28;20021;-78
2022/09/07 09:38:43;;;;;;;8.77;3.45;;;;;;;;;;6248423;28;20033;-78
2022/09/07 09:41:43;;;;;;;7.28;3.30;;;;;;;;;;6245264;28;20028;-78
2022/09/07 09:44:44;;;;;;;5.70;2.88;;;;;;;;;;6242014;28;20108;-78
2022/09/07 09:47:48;;;;;;;5.85;3.28;;;;;;;;;;6240771;28;20439;-78
2022/09/07 09:50:51;;;;;;;7.30;3.42;;;;;;;;;;6243462;28;20240;-78
2022/09/07 09:53:53;;;;;;;7.18;2.75;;;;;;;;;;6240468;28;20067;-78
2022/09/07 09:56:53;;;;;;;5.57;2.88;;;;;;;;;;6224956;28;20032;-78
2022/09/07 10:00:00;;;;;;;6.10;3.17;;;;;;;;;;6235165;28;20029;-78
2022/09/07 10:03:02;;;;;;;7.90;2.95;;;;;;;;;;6245648;28;20060;-78
2022/09/07 10:06:05;;;;;;;7.05;3.28;;;;;;;;;;6244314;28;20052;-78
2022/09/07 10:09:11;;;;;;;5.13;3.00;;;;;;;;;;6243736;28;20052;-78
2022/09/07 10:12:20;;;;;;;5.63;2.70;;;;;;;;;;6239763;28;20072;-78
2022/09/07 10:15:34;;;;;;;6.05;3.35;;;;;;;;;;6259329;28;20481;-78
2022/09/07 10:18:38;;;;;;;8.02;2.83;;;;;;;;;;6244462;28;20384;-78
2022/09/07 10:21:39;;;;;;;5.28;3.00;;;;;;;;;;6241217;28;20029;-78
2022/09/07 10:24:39;;;;;;;7.57;3.00;;;;;;;;;;6244341;28;20289;-78
2022/09/07 10:27:39;;;;;;;6.73;2.70;;;;;;;;;;6240875;28;20472;-78
2022/09/07 10:30:46;;;;;;;7.77;2.77;;;;;;;;;;6246106;28;20470;-78
2022/09/07 10:33:55;;;;;;;6.00;3.53;;;;;;;;;;6241821;28;20325;-78
2022/09/07 10:37:02;;;;;;;4.55;2.60;;;;;;;;;;6242537;28;20026;-78
2022/09/07 10:40:26;;;;;;;5.20;2.92;;;;;;;;;;6245351;28;20393;-78
2022/09/07 10:43:39;;;;;;;6.93;3.42;;;;;;;;;;6233133;28;20096;-78
2022/09/07 10:46:45;;;;;;;6.20;3.30;;;;;;;;;;6233842;28;20030;-78
2022/09/07 10:49:46;;;;;;;7.43;3.00;;;;;;;;;;6235845;28;20018;-78
2022/09/07 10:53:05;;;;;;;5.13;3.17;;;;;;;;;;6242596;28;20039;-78
2022/09/07 10:56:16;;;;;;;5.40;2.78;;;;;;;;;;6243985;28;20024;-78
2022/09/07 10:59:25;;;;;;;7.22;3.28;;;;;;;;;;6243587;28;20029;-78
2022/09/07 11:02:25;;;;;;;8.75;2.85;;;;;;;;;;6242794;28;20032;-78
2022/09/07 11:05:43;;;;;;;7.45;2.83;;;;;;;;;;6243447;28;20089;-79
2022/09/07 11:09:02;;;;;;;4.93;3.15;;;;;;;;;;6238911;28;20393;-78
2022/09/07 11:12:05;;;;;;;6.70;2.72;;;;;;;;;;6246697;28;20026;-78
2022/09/07 11:15:11;;;;;;;6.63;2.72;;;;;;;;;;6249053;28;20017;-79
2022/09/07 11:18:32;;;;;;;6.95;2.65;;;;;;;;;;6261225;28;20028;-78
2022/09/07 11:21:38;;;;;;;9.57;3.07;;;;;;;;;;6242282;28;20029;-78
2022/09/07 11:24:51;;;;;;;7.00;3.42;;;;;;;;;;6244252;28;20025;-78
2022/09/07 11:28:09;;;;;;;8.82;3.42;;;;;;;;;;6243575;28;20030;-78
2022/09/07 11:31:18;;;;;;;8.82;3.00;;;;;;;;;;6247190;28;20018;-78
2022/09/07 11:34:21;;;;;;;7.32;3.38;;;;;;;;;;6246362;28;20179;-78
2022/09/07 11:37:33;;;;;;;7.20;2.83;;;;;;;;;;6245710;28;20056;-78
2022/09/07 11:40:35;;;;;;;8.27;3.38;;;;;;;;;;6250302;28;20079;-78
2022/09/07 11:43:40;;;;;;;11.27;3.72;;;;;;;;;;6245421;28;20021;-78
2022/09/07 11:46:42;;;;;;;5.38;2.90;;;;;;;;;;6248237;28;20025;-78
2022/09/07 11:49:42;;;;;;;10.07;3.38;;;;;;;;;;6246873;28;20013;-78
2022/09/07 11:52:42;;;;;;;;;;;;;;;;;;6246237;28;20025;-78
2022/09/07 11:55:45;;;;;;;8.00;3.38;;;;;;;;;;6245268;28;19940;-78
2022/09/07 11:58:57;;;;;;;6.95;2.90;;;;;;;;;;6248616;28;20026;-78
2022/09/07 12:01:58;;;;;;;9.15;3.20;;;;;;;;;;6262641;28;20948;-78
2022/09/07 12:04:58;;;;;;;;;;;;;;;;;;6239664;28;20062;-78
2022/09/07 12:07:58;;;;;;;7.68;3.13;;;;;;;;;;6261390;28;19913;-78
2022/09/07 12:11:07;;;;;;;6.57;2.80;;;;;;;;;;6246787;28;20025;-78
2022/09/07 12:14:11;;;;;;;8.25;2.92;;;;;;;;;;6251098;28;20406;-78
2022/09/07 12:17:14;;;;;;;7.78;3.85;;;;;;;;;;6246677;28;20020;-78
2022/09/07 12:20:18;;;;;;;5.75;3.00;;;;;;;;;;6245698;28;20052;-78
2022/09/07 12:23:27;;;;;;;6.60;3.15;;;;;;;;;;6248640;28;20082;-78
2022/09/07 12:26:33;;;;;;;9.30;3.40;;;;;;;;;;6244599;28;20375;-78
2022/09/07 12:29:33;;;;;;;5.95;3.40;;;;;;;;;;6260138;28;20174;-78
2022/09/07 12:32:46;;;;;;;6.70;3.50;;;;;;;;;;6238272;28;20018;-78
2022/09/07 12:35:46;;;;;;;5.93;3.00;;;;;;;;;;6259728;28;20071;-78
2022/09/07 12:39:05;;;;;;;6.53;3.10;;;;;;;;;;6246627;28;20022;-78
2022/09/07 12:42:06;;;;;;;4.70;2.78;;;;;;;;;;6248368;28;20339;-79
2022/09/07 12:45:25;;;;;;;4.90;2.78;;;;;;;;;;6244766;28;20047;-79
2022/09/07 12:48:45;;;;;;;5.82;3.00;;;;;;;;;;6244917;28;20033;-79
2022/09/07 12:52:04;;;;;;;5.80;3.33;;;;;;;;;;6256814;28;20025;-79
2022/09/07 12:55:20;;;;;;;6.80;3.40;;;;;;;;;;6244079;28;20503;-79
2022/09/07 12:58:26;;;;;;;6.10;2.85;;;;;;;;;;6247033;28;20474;-79
2022/09/07 13:01:59;;;;;;;7.10;3.72;;;;;;;;;;6258058;28;20025;-79
2022/09/07 13:05:02;;;;;;;6.72;3.35;;;;;;;;;;6217759;28;20155;-79
2022/09/07 13:08:24;;;;;;;8.18;3.60;;;;;;;;;;6245709;28;20465;-79
2022/09/07 13:11:29;;;;;;;10.27;3.47;;;;;;;;;;6241519;28;20018;-79
2022/09/07 13:14:31;;;;;;;6.60;3.80;;;;;;;;;;6243389;28;20021;-79
2022/09/07 13:17:32;;;;;;;7.03;3.28;;;;;;;;;;6244578;28;20022;-79
2022/09/07 13:20:33;;;;;;;9.15;4.03;;;;;;;;;;6240323;28;20104;-79
2022/09/07 13:23:34;;;;;;;8.30;3.37;;;;;;;;;;6244954;28;20106;-78
2022/09/07 13:26:53;;;;;;;7.50;3.72;;;;;;;;;;6238931;28;20303;-79
2022/09/07 13:30:17;;;;;;;7.95;3.85;;;;;;;;;;6240733;28;20022;-79
2022/09/07 13:33:23;;;;;;;6.88;3.45;;;;;;;;;;6237633;28;20029;-79
2022/09/07 13:36:35;;;;;;;8.07;3.60;;;;;;;;;;6249817;28;20061;-79
2022/09/07 13:39:39;;;;;;;7.97;3.78;;;;;;;;;;6259940;28;20420;-79
2022/09/07 13:42:41;;;;;;;7.20;3.35;;;;;;;;;;6244831;28;20025;-79
2022/09/07 13:45:54;;;;;;;10.05;3.40;;;;;;;;;;6236152;28;20477;-79
2022/09/07 13:49:00;;;;;;;9.38;3.63;;;;;;;;;;6243064;28;20128;-79
2022/09/07 13:52:20;;;;;;;8.60;3.67;;;;;;;;;;6252927;28;20965;-78
2022/09/07 13:55:26;;;;;;;8.90;3.45;;;;;;;;;;6245125;28;20056;-77
2022/09/07 13:58:34;;;;;;;9.55;3.75;;;;;;;;;;6244292;28;20053;-78
2022/09/07 14:01:40;;;;;;;7.28;3.42;;;;;;;;;;6245696;28;20082;-79
2022/09/07 14:04:43;;;;;;;13.25;6.53;;;;;;;;;;6245893;28;20025;-78
2022/09/07 14:07:46;;;;;;;7.68;4.95;;;;;;;;;;6245050;28;20465;-78
2022/09/07 14:10:47;;;;;;;6.93;3.95;;;;;;;;;;6244930;28;20071;-78
2022/09/07 14:14:06;;;;;;;8.75;3.45;;;;;;;;;;6244401;28;20063;-78
2022/09/07 14:17:11;;;;;;;6.57;3.42;;;;;;;;;;6259962;28;20041;-77
2022/09/07 14:20:15;;;;;;;9.07;4.22;;;;;;;;;;6242452;28;20025;-78
2022/09/07 14:23:26;;;;;;;5.78;2.95;;;;;;;;;;6242414;28;20365;-78
2022/09/07 14:26:28;;;;;;;8.30;3.67;;;;;;;;;;6257329;28;20045;-78
2022/09/07 14:29:35;;;;;;;7.70;3.45;;;;;;;;;;6244116;28;20014;-78
2022/09/07 14:32:35;;;;;;;7.43;3.55;;;;;;;;;;6238770;28;20029;-78
2022/09/07 14:35:35;;;;;;;;;;;;;;;;;;6243779;28;20079;-78
2022/09/07 14:38:36;;;;;;;10.48;3.70;;;;;;;;;;6262110;28;19905;-78
2022/09/07 14:41:37;;;;;;;;;;;;;;;;;;6238352;28;20017;-78
2022/09/07 14:44:44;;;;;;;10.70;3.75;;;;;;;;;;6260020;28;20130;-78
2022/09/07 14:47:45;;;;;;;7.53;3.50;;;;;;;;;;6245793;28;20483;-78
2022/09/07 14:50:47;;;;;;;11.55;4.03;;;;;;;;;;6248585;28;20706;-78
2022/09/07 14:53:51;;;;;;;8.38;3.40;;;;;;;;;;6249467;28;20022;-78
2022/09/07 14:57:02;;;;;;;9.20;3.83;;;;;;;;;;6248413;28;20025;-78
2022/09/07 15:00:22;;;;;;;8.45;3.58;;;;;;;;;;6246733;28;20021;-78
2022/09/07 15:03:26;;;;;;;6.22;3.90;;;;;;;;;;6250859;28;20457;-78
2022/09/07 15:06:31;;;;;;;9.32;3.75;;;;;;;;;;6250040;28;20056;-78
2022/09/07 15:09:35;;;;;;;8.75;4.50;;;;;;;;;;6248206;28;20022;-78
2022/09/07 15:12:39;;;;;;;8.52;4.40;;;;;;;;;;6247593;28;20024;-78
2022/09/07 15:15:40;;;;;;;7.60;4.10;;;;;;;;;;6248031;28;20030;-78
2022/09/07 15:18:54;;;;;;;6.37;3.70;;;;;;;;;;6242705;28;20388;-78
2022/09/07 15:21:54;;;;;;;10.73;4.70;;;;;;;;;;6258748;28;20500;-78
2022/09/07 15:24:54;;;;;;;5.77;2.93;;;;;;;;;;6249366;28;20075;-78
2022/09/07 15:27:55;;;;;;;9.77;4.17;;;;;;;;;;6254607;28;20037;-78
2022/09/07 15:30:55;;;;;;;12.67;3.93;;;;;;;;;;6254008;28;20067;-78
2022/09/07 15:33:56;;;;;;;9.37;3.47;;;;;;;;;;6246069;28;20014;-78
2022/09/07 15:36:58;;;;;;;8.70;3.38;;;;;;;;;;6246430;28;20025;-78
2022/09/07 15:39:58;;;;;;;10.57;4.57;;;;;;;;;;6239393;28;20052;-78
2022/09/07 15:42:59;;;;;;;8.48;4.00;;;;;;;;;;6245589;28;20104;-79
2022/09/07 15:45:59;;;;;;;7.15;4.13;;;;;;;;;;6255634;28;20347;-79
2022/09/07 15:49:01;;;;;;;7.57;3.60;;;;;;;;;;6256909;28;20386;-79
2022/09/07 15:52:02;;;;;;;7.97;4.25;;;;;;;;;;6258443;28;20017;-79
2022/09/07 15:55:02;;;;;;;8.17;4.40;;;;;;;;;;6248312;28;20577;-79
2022/09/07 15:58:03;;;;;;;6.93;3.70;;;;;;;;;;6248068;28;20029;-78
2022/09/07 16:01:04;;;;;;;7.57;3.80;;;;;;;;;;6247343;28;20029;-79
2022/09/07 16:04:04;;;;;;;9.85;4.10;;;;;;;;;;6253365;28;20029;-79
2022/09/07 16:07:04;;;;;;;9.97;4.60;;;;;;;;;;6246112;28;20088;-79
2022/09/07 16:10:05;;;;;;;9.10;4.33;;;;;;;;;;6242685;28;20298;-79
2022/09/07 16:13:05;;;;;;;9.02;3.83;;;;;;;;;;6240815;28;20018;-79
2022/09/07 16:16:06;;;;;;;11.20;4.57;;;;;;;;;;6246763;28;20018;-79
2022/09/07 16:19:08;;;;;;;8.60;5.00;;;;;;;;;;6253073;28;20167;-79
2022/09/07 16:22:08;;;;;;;10.15;4.32;;;;;;;;;;6245273;28;20505;-79
2022/09/07 16:25:08;;;;;;;11.10;4.37;;;;;;;;;;6237593;28;20156;-79
2022/09/07 16:28:09;;;;;;;9.40;5.20;;;;;;;;;;6260167;28;20110;-78
2022/09/07 16:31:14;;;;;;;14.37;4.93;;;;;;;;;;6243476;28;20016;-78
2022/09/07 16:34:19;;;;;;;9.95;5.00;;;;;;;;;;6243991;28;20102;-78
2022/09/07 16:37:20;;;;;;;10.05;4.22;;;;;;;;;;6249049;28;20017;-78
2022/09/07 16:40:20;;;;;;;5.75;3.92;;;;;;;;;;6240875;28;20025;-78
2022/09/07 16:43:20;;;;;;;9.60;4.07;;;;;;;;;;6246828;28;20009;-78
2022/09/07 16:46:22;;;;;;;8.70;4.03;;;;;;;;;;6244328;28;20071;-78
2022/09/07 16:49:22;;;;;;;;;;;;;;;;;;6241401;28;20017;-78
2022/09/07 16:52:22;;;;;;;8.38;4.28;;;;;;;;;;6247728;28;19932;-78
2022/09/07 16:55:22;;;;;;;12.80;4.70;;;;;;;;;;6248040;28;20081;-78
2022/09/07 16:58:22;;;;;;;7.80;4.40;;;;;;;;;;6247987;28;20037;-78
2022/09/07 17:01:24;;;;;;;11.20;5.30;;;;;;;;;;6244302;28;20026;-78
2022/09/07 17:04:25;;;;;;;10.57;4.90;;;;;;;;;;6244503;28;20013;-78
2022/09/07 17:07:25;;;;;;;9.60;5.37;;;;;;;;;;6244864;28;20835;-78
2022/09/07 17:10:27;;;;;;;8.40;4.40;;;;;;;;;;6232452;28;20028;-78
2022/09/07 17:13:29;;;;;;;10.02;4.32;;;;;;;;;;6243337;28;20030;-78
2022/09/07 17:16:29;;;;;;;;;;;;;;;;;;6241442;28;20033;-78
2022/09/07 17:19:29;;;;;;;10.43;4.85;;;;;;;;;;6246331;28;19913;-78
2022/09/07 17:22:29;;;;;;;8.82;5.25;;;;;;;;;;6245392;28;20025;-78
2022/09/07 17:25:29;;;;;;;8.82;4.55;;;;;;;;;;6242853;28;20052;-78
2022/09/07 17:28:29;;;;;;;14.25;5.47;;;;;;;;;;6243699;28;20073;-78
2022/09/07 17:31:31;;;;;;;13.60;6.37;;;;;;;;;;6240968;28;20642;-78
2022/09/07 17:34:31;;;;;;;10.90;4.78;;;;;;;;;;6250411;28;20025;-78
2022/09/07 17:37:31;;;;;;;13.47;5.10;;;;;;;;;;6245195;28;20017;-78
2022/09/07 17:40:32;;;;;;;7.65;4.70;;;;;;;;;;6244081;28;20094;-78
2022/09/07 17:43:32;;;;;;;13.43;5.15;;;;;;;;;;6242501;28;20426;-78
2022/09/07 17:46:32;;;;;;;9.20;4.80;;;;;;;;;;6248253;28;20096;-78
2022/09/07 17:49:33;;;;;;;9.30;5.23;;;;;;;;;;6262077;28;20021;-78
2022/09/07 17:52:33;;;;;;;12.30;4.47;;;;;;;;;;6249489;28;20013;-78
2022/09/07 17:55:33;;;;;;;11.73;5.93;;;;;;;;;;6241745;28;20020;-79
2022/09/07 17:58:34;;;;;;;12.63;6.82;;;;;;;;;;6246332;28;20025;-79
2022/09/07 18:01:35;;;;;;;14.38;6.40;;;;;;;;;;6243912;28;20112;-79
2022/09/07 18:04:35;;;;;;;10.90;6.07;;;;;;;;;;6242249;28;20075;-79
2022/09/07 18:07:35;;;;;;;14.48;7.05;;;;;;;;;;6241234;28;20029;-79
2022/09/07 18:10:36;;;;;;;13.97;6.07;;;;;;;;;;6245709;28;20375;-79
2022/09/07 18:13:37;;;;;;;11.18;6.65;;;;;;;;;;6239989;28;20025;-79
2022/09/07 18:16:37;;;;;;;13.27;6.70;;;;;;;;;;6226516;28;20493;-79
2022/09/07 18:19:37;;;;;;;12.95;7.85;;;;;;;;;;6244121;28;20124;-79
2022/09/07 18:22:38;;;;;;;13.23;7.57;;;;;;;;;;6242449;28;20029;-79
2022/09/07 18:25:38;;;;;;;21.17;8.80;;;;;;;;;;6242941;28;20463;-79
2022/09/07 18:28:39;;;;;;;14.63;8.77;;;;;;;;;;6242530;28;20016;-79